Time;durP1;ratioP1;P1;durP2;ratioP2;P2;SDS_P1;SDS_P2;PMS_P1;PMS_P2;Temp;Humidity;BMP_temperature;BMP_pressure;BME280_temperature;BME280_humidity;BME280_pressure;Samples;Min_cycle;Max_cycle;Signal;HPM_P1;HPM_P2
2023/08/14 00:02:02;;;;;;;10.18;5.75;;;563.20;2432.00;;;;;;5013875;28;20030;-72
2023/08/14 00:04:27;;;;;;;10.30;6.40;;;538.50;2406.40;;;;;;5013769;28;20034;-70
2023/08/14 00:06:54;;;;;;;6.57;5.40;;;563.30;2432.00;;;;;;5013815;28;20030;-71
2023/08/14 00:09:20;;;;;;;9.68;5.75;;;563.40;2432.00;;;;;;5013838;28;20411;-69
2023/08/14 00:11:46;;;;;;;10.07;6.55;;;563.40;2432.00;;;;;;5013632;28;20036;-70
2023/08/14 00:14:12;;;;;;;9.73;6.75;;;563.60;2432.00;;;;;;5013793;28;20022;-70
2023/08/14 00:16:37;;;;;;;14.77;5.78;;;563.60;2432.00;;;;;;5013712;28;20030;-71
2023/08/14 00:19:03;;;;;;;8.50;5.63;;;563.40;2432.00;;;;;;5013625;28;20033;-71
2023/08/14 00:21:29;;;;;;;10.88;6.50;;;563.30;2432.00;;;;;;5013674;28;20061;-71
2023/08/14 00:23:55;;;;;;;8.05;6.10;;;563.40;2432.00;;;;;;5013598;28;20384;-72
2023/08/14 00:26:20;;;;;;;10.48;6.35;;;563.30;2432.00;;;;;;5013333;28;20068;-71
2023/08/14 00:28:46;;;;;;;9.73;6.28;;;563.30;2432.00;;;;;;5013334;28;20022;-70
2023/08/14 00:31:12;;;;;;;7.60;6.20;;;538.50;2406.40;;;;;;5013274;28;20068;-70
2023/08/14 00:33:38;;;;;;;11.48;5.90;;;538.50;2406.40;;;;;;5013419;28;20049;-74
2023/08/14 00:36:05;;;;;;;8.02;6.30;;;538.50;2406.40;;;;;;5013496;28;20038;-71
2023/08/14 00:38:31;;;;;;;8.18;6.57;;;538.40;2406.40;;;;;;5013401;28;20030;-70
2023/08/14 00:40:57;;;;;;;13.48;6.32;;;538.40;2406.40;;;;;;5013569;28;20025;-71
2023/08/14 00:43:23;;;;;;;9.35;6.70;;;538.20;2406.40;;;;;;5013151;28;20026;-70
2023/08/14 00:45:58;;;;;;;7.90;6.07;;;538.10;2406.40;;;;;;5013368;28;20038;-70
2023/08/14 00:48:25;;;;;;;9.35;6.82;;;538.10;2406.40;;;;;;5012941;28;20026;-72
2023/08/14 00:50:52;;;;;;;11.32;7.22;;;537.90;2406.40;;;;;;5013249;28;20022;-73
2023/08/14 00:53:19;;;;;;;13.35;6.88;;;537.80;2406.40;;;;;;5013415;28;20026;-71
2023/08/14 00:55:45;;;;;;;9.10;5.97;;;537.70;2406.40;;;;;;5013095;28;20022;-70
2023/08/14 00:58:12;;;;;;;11.13;7.25;;;512.90;2380.80;;;;;;5012899;28;20026;-71
2023/08/14 01:00:39;;;;;;;11.98;7.07;;;512.90;2380.80;;;;;;5013285;28;20101;-70
2023/08/14 01:03:05;;;;;;;12.50;7.00;;;512.70;2380.80;;;;;;5013123;28;20476;-70
2023/08/14 01:05:31;;;;;;;9.02;6.13;;;512.60;2380.80;;;;;;5013155;28;20042;-70
2023/08/14 01:07:57;;;;;;;10.68;7.63;;;512.60;2380.80;;;;;;5013189;28;20379;-70
2023/08/14 01:10:26;;;;;;;11.13;7.30;;;512.60;2380.80;;;;;;5013060;28;20036;-71
2023/08/14 01:13:00;;;;;;;10.45;6.63;;;512.60;2380.80;;;;;;5012834;28;20022;-69
2023/08/14 01:15:29;;;;;;;9.13;6.68;;;512.50;2380.80;;;;;;5013283;28;20045;-71
2023/08/14 01:18:00;;;;;;;10.50;6.60;;;512.50;2380.80;;;;;;5013179;28;20034;-70
2023/08/14 01:20:30;;;;;;;14.48;6.93;;;512.40;2380.80;;;;;;5013004;28;20069;-71
2023/08/14 01:23:29;;;;;;;13.85;6.80;;;512.50;2380.80;;;;;;5013144;28;20105;-70
2023/08/14 01:25:55;;;;;;;11.45;6.72;;;512.60;2380.80;;;;;;5013022;28;20042;-71
2023/08/14 01:28:22;;;;;;;13.68;7.20;;;512.70;2380.80;;;;;;5012821;28;20026;-70
2023/08/14 01:30:47;;;;;;;9.13;6.32;;;512.60;2380.80;;;;;;5012882;28;20026;-71
2023/08/14 01:33:13;;;;;;;12.23;7.88;;;512.60;2380.80;;;;;;5012617;28;20442;-70
2023/08/14 01:35:45;;;;;;;10.65;6.68;;;512.60;2380.80;;;;;;5012942;28;20096;-75
2023/08/14 01:38:38;;;;;;;12.57;7.85;;;512.70;2380.80;;;;;;5012875;28;20467;-70
2023/08/14 01:41:13;;;;;;;11.20;7.32;;;537.60;2406.40;;;;;;5012908;28;20538;-71
2023/08/14 01:43:48;;;;;;;9.73;6.88;;;537.70;2406.40;;;;;;5012673;28;20069;-70
2023/08/14 01:46:15;;;;;;;11.02;7.60;;;512.90;2380.80;;;;;;5012615;28;20041;-75
2023/08/14 01:48:42;;;;;;;11.48;7.35;;;512.90;2380.80;;;;;;5012662;28;20045;-70
2023/08/14 01:51:10;;;;;;;11.13;6.82;;;512.90;2380.80;;;;;;5012850;28;20032;-73
2023/08/14 01:53:36;;;;;;;8.80;6.82;;;537.60;2406.40;;;;;;5012606;28;20018;-70
2023/08/14 01:56:02;;;;;;;9.23;7.15;;;512.90;2380.80;;;;;;5012666;28;20486;-70
2023/08/14 01:58:29;;;;;;;10.90;7.55;;;512.90;2380.80;;;;;;5012518;28;20034;-70
2023/08/14 02:00:55;;;;;;;9.15;6.70;;;537.60;2406.40;;;;;;5015382;28;20018;-70
2023/08/14 02:03:21;;;;;;;10.57;7.05;;;537.70;2406.40;;;;;;5015968;28;20061;-70
2023/08/14 02:05:46;;;;;;;8.95;7.07;;;537.70;2406.40;;;;;;5015998;28;20042;-69
2023/08/14 02:08:12;;;;;;;11.63;7.20;;;537.80;2406.40;;;;;;5016052;28;20076;-71
2023/08/14 02:10:38;;;;;;;12.40;7.95;;;537.80;2406.40;;;;;;5016089;28;20037;-70
2023/08/14 02:13:03;;;;;;;9.80;7.38;;;537.90;2406.40;;;;;;5015736;28;20018;-70
2023/08/14 02:15:29;;;;;;;13.45;7.75;;;538.00;2406.40;;;;;;5015789;28;20052;-69
2023/08/14 02:17:55;;;;;;;11.60;7.55;;;538.00;2406.40;;;;;;5015742;28;20026;-70
2023/08/14 02:20:21;;;;;;;8.45;6.63;;;538.00;2406.40;;;;;;5015876;28;20038;-70
2023/08/14 02:22:47;;;;;;;8.10;6.63;;;538.10;2406.40;;;;;;5015805;28;20021;-70
2023/08/14 02:25:12;;;;;;;11.27;6.70;;;538.00;2406.40;;;;;;5015608;28;20186;-70
2023/08/14 02:27:38;;;;;;;9.10;7.18;;;538.00;2406.40;;;;;;5015139;28;20105;-70
2023/08/14 02:30:04;;;;;;;9.70;7.43;;;538.10;2406.40;;;;;;5015030;28;20106;-70
2023/08/14 02:32:30;;;;;;;8.65;6.85;;;538.10;2406.40;;;;;;5014603;28;20058;-70
2023/08/14 02:34:56;;;;;;;7.88;6.93;;;538.30;2406.40;;;;;;5014922;28;20038;-70
2023/08/14 02:37:22;;;;;;;11.07;6.78;;;538.30;2406.40;;;;;;5015164;28;20041;-71
2023/08/14 02:39:48;;;;;;;14.13;7.82;;;538.30;2406.40;;;;;;5014779;28;20087;-70
2023/08/14 02:42:17;;;;;;;11.25;7.30;;;538.10;2406.40;;;;;;5014785;28;20479;-71
2023/08/14 02:44:43;;;;;;;11.32;7.05;;;538.10;2406.40;;;;;;5014665;28;20146;-70
2023/08/14 02:47:09;;;;;;;10.30;8.00;;;538.10;2406.40;;;;;;5014548;28;20100;-70
2023/08/14 02:49:35;;;;;;;8.90;7.13;;;538.20;2406.40;;;;;;5014624;28;20045;-70
2023/08/14 02:52:00;;;;;;;9.68;7.57;;;538.20;2406.40;;;;;;5014643;28;20018;-70
2023/08/14 02:54:26;;;;;;;9.90;7.50;;;538.10;2406.40;;;;;;5014610;28;20026;-71
2023/08/14 02:56:52;;;;;;;8.20;6.50;;;538.10;2406.40;;;;;;5014445;28;20030;-70
2023/08/14 02:59:18;;;;;;;9.73;7.78;;;538.20;2406.40;;;;;;5014347;28;20368;-71
2023/08/14 03:01:44;;;;;;;12.93;7.40;;;538.20;2406.40;;;;;;5014308;28;20080;-71
2023/08/14 03:04:10;;;;;;;10.80;7.50;;;538.20;2406.40;;;;;;5014180;28;20030;-70
2023/08/14 03:06:35;;;;;;;13.77;7.97;;;538.00;2406.40;;;;;;5014306;28;20121;-70
2023/08/14 03:09:01;;;;;;;11.50;7.93;;;537.90;2406.40;;;;;;5014428;28;20045;-70
2023/08/14 03:11:27;;;;;;;14.27;7.20;;;538.00;2406.40;;;;;;5013859;28;20029;-70
2023/08/14 03:13:53;;;;;;;12.98;7.57;;;538.00;2406.40;;;;;;5013998;28;20029;-70
2023/08/14 03:16:19;;;;;;;13.65;7.68;;;537.90;2406.40;;;;;;5014204;28;20033;-70
2023/08/14 03:18:45;;;;;;;12.52;7.80;;;537.80;2406.40;;;;;;5014065;28;20018;-70
2023/08/14 03:21:10;;;;;;;15.68;8.32;;;537.70;2406.40;;;;;;5014337;28;20054;-70
2023/08/14 03:23:36;;;;;;;9.90;7.82;;;537.70;2406.40;;;;;;5014120;28;20483;-74
2023/08/14 03:26:03;;;;;;;14.57;7.47;;;537.80;2406.40;;;;;;5013869;28;20092;-70
2023/08/14 03:28:29;;;;;;;14.57;7.60;;;537.80;2406.40;;;;;;5012939;28;20087;-71
2023/08/14 03:30:55;;;;;;;11.70;8.75;;;537.80;2406.40;;;;;;5013939;28;20029;-71
2023/08/14 03:33:20;;;;;;;9.23;7.90;;;537.70;2406.40;;;;;;5013623;28;20512;-71
2023/08/14 03:35:46;;;;;;;10.30;8.00;;;537.80;2406.40;;;;;;5013640;28;20026;-70
2023/08/14 03:38:12;;;;;;;10.00;7.80;;;537.80;2406.40;;;;;;5014076;28;20026;-70
2023/08/14 03:40:38;;;;;;;12.25;7.07;;;537.80;2406.40;;;;;;5013659;28;20468;-70
2023/08/14 03:43:03;;;;;;;10.43;8.02;;;512.90;2380.80;;;;;;5013619;28;20022;-70
2023/08/14 03:45:29;;;;;;;12.32;8.13;;;512.90;2380.80;;;;;;5013681;28;20479;-73
2023/08/14 03:47:55;;;;;;;13.77;8.82;;;537.70;2406.40;;;;;;5013562;28;20022;-71
2023/08/14 03:50:20;;;;;;;207.70;100.68;;;537.60;2406.40;;;;;;5013408;28;20373;-70
2023/08/14 03:52:48;;;;;;;321.08;154.68;;;537.70;2406.40;;;;;;5013523;28;20032;-71
2023/08/14 03:55:13;;;;;;;264.13;139.98;;;537.70;2406.40;;;;;;5013520;28;20025;-70
2023/08/14 03:57:39;;;;;;;396.55;194.27;;;537.80;2406.40;;;;;;5013227;28;20018;-70
2023/08/14 04:00:06;;;;;;;398.58;205.23;;;537.80;2406.40;;;;;;5013558;28;20025;-70
2023/08/14 04:02:32;;;;;;;316.92;165.73;;;538.00;2406.40;;;;;;5013222;28;20025;-70
2023/08/14 04:04:58;;;;;;;199.27;97.40;;;538.00;2406.40;;;;;;5013105;28;20396;-70
2023/08/14 04:07:24;;;;;;;106.55;54.33;;;537.80;2406.40;;;;;;5013536;28;20365;-70
2023/08/14 04:09:49;;;;;;;72.40;39.00;;;537.80;2406.40;;;;;;5013152;28;20030;-70
2023/08/14 04:12:15;;;;;;;49.78;26.92;;;537.70;2406.40;;;;;;5013300;28;20473;-70
2023/08/14 04:14:40;;;;;;;97.00;48.90;;;537.70;2406.40;;;;;;5013028;28;20041;-69
2023/08/14 04:17:06;;;;;;;90.63;48.35;;;537.70;2406.40;;;;;;5013104;28;20022;-70
2023/08/14 04:19:32;;;;;;;91.82;44.92;;;537.80;2406.40;;;;;;5013207;28;20022;-70
2023/08/14 04:21:57;;;;;;;78.85;41.50;;;537.90;2406.40;;;;;;5012280;28;20038;-70
2023/08/14 04:24:23;;;;;;;55.85;31.60;;;537.80;2406.40;;;;;;5018881;28;20128;-71
2023/08/14 04:26:49;;;;;;;40.35;23.25;;;537.60;2406.40;;;;;;5022354;28;20028;-70
2023/08/14 04:29:16;;;;;;;19.65;11.95;;;537.80;2406.40;;;;;;5022271;28;20026;-70
2023/08/14 04:31:42;;;;;;;17.27;12.25;;;537.80;2406.40;;;;;;5028607;28;20029;-69
2023/08/14 04:34:09;;;;;;;19.83;11.43;;;537.60;2406.40;;;;;;5023008;28;20056;-69
2023/08/14 04:36:35;;;;;;;17.98;10.05;;;537.70;2406.40;;;;;;5015959;28;20037;-71
2023/08/14 04:39:03;;;;;;;18.95;10.50;;;537.90;2406.40;;;;;;5026586;28;20033;-69
2023/08/14 04:41:29;;;;;;;17.35;12.60;;;538.10;2406.40;;;;;;5022861;28;20109;-70
2023/08/14 04:43:55;;;;;;;18.88;14.20;;;538.10;2406.40;;;;;;5021536;28;20140;-70
2023/08/14 04:46:34;;;;;;;18.08;12.13;;;538.10;2406.40;;;;;;5021543;28;20550;-70
2023/08/14 04:49:00;;;;;;;17.55;11.05;;;538.10;2406.40;;;;;;5018060;28;20042;-71
2023/08/14 04:51:26;;;;;;;17.23;11.23;;;538.10;2406.40;;;;;;5023131;28;20030;-73
2023/08/14 04:53:53;;;;;;;14.25;9.57;;;538.10;2406.40;;;;;;5019831;28;20068;-70
2023/08/14 04:56:19;;;;;;;15.95;10.13;;;538.00;2406.40;;;;;;5016970;28;20022;-70
2023/08/14 04:58:45;;;;;;;19.05;10.68;;;538.10;2406.40;;;;;;5014810;28;20110;-70
2023/08/14 05:01:11;;;;;;;19.02;10.00;;;538.00;2406.40;;;;;;5023488;28;20022;-70
2023/08/14 05:03:37;;;;;;;13.70;10.63;;;538.20;2406.40;;;;;;5018265;28;20490;-72
2023/08/14 05:06:03;;;;;;;17.13;10.25;;;538.30;2406.40;;;;;;5018268;28;20044;-71
2023/08/14 05:08:29;;;;;;;15.18;10.65;;;538.40;2406.40;;;;;;5023301;28;20124;-70
2023/08/14 05:10:55;;;;;;;20.23;11.52;;;538.40;2406.40;;;;;;5019162;28;20026;-70
2023/08/14 05:13:21;;;;;;;18.23;11.85;;;538.50;2406.40;;;;;;5018955;28;20030;-69
2023/08/14 05:15:48;;;;;;;16.08;11.63;;;538.40;2406.40;;;;;;5019483;28;20029;-70
2023/08/14 05:18:14;;;;;;;15.32;11.40;;;538.40;2406.40;;;;;;5021632;28;20030;-70
2023/08/14 05:20:47;;;;;;;17.15;11.30;;;563.20;2432.00;;;;;;5017663;28;20041;-69
2023/08/14 05:23:14;;;;;;;18.27;11.65;;;563.30;2432.00;;;;;;5025182;28;20117;-69
2023/08/14 05:25:44;;;;;;;14.85;11.50;;;563.30;2432.00;;;;;;5023060;28;20034;-71
2023/08/14 05:28:11;;;;;;;17.52;11.13;;;563.50;2432.00;;;;;;5024057;28;20022;-71
2023/08/14 05:30:41;;;;;;;14.75;10.18;;;563.30;2432.00;;;;;;5015452;28;20076;-71
2023/08/14 05:33:06;;;;;;;15.82;11.40;;;563.20;2432.00;;;;;;5026019;28;20073;-71
2023/08/14 05:35:32;;;;;;;15.30;11.20;;;538.50;2406.40;;;;;;5022718;28;20061;-70
2023/08/14 05:37:59;;;;;;;14.63;10.88;;;563.20;2432.00;;;;;;5025565;28;20036;-71
2023/08/14 05:40:28;;;;;;;16.75;10.50;;;563.30;2432.00;;;;;;5026170;28;20369;-72
2023/08/14 05:43:13;;;;;;;14.27;10.70;;;538.50;2406.40;;;;;;5025715;28;20025;-71
2023/08/14 05:45:42;;;;;;;11.05;9.48;;;538.50;2406.40;;;;;;5020821;28;20040;-71
2023/08/14 05:48:09;;;;;;;13.52;10.38;;;563.30;2432.00;;;;;;5026284;28;20026;-73
2023/08/14 05:50:35;;;;;;;14.60;10.57;;;563.40;2432.00;;;;;;5025793;28;20076;-74
2023/08/14 05:53:04;;;;;;;11.15;8.52;;;563.50;2432.00;;;;;;5031271;28;20116;-71
2023/08/14 05:55:41;;;;;;;11.63;8.88;;;563.60;2432.00;;;;;;5030109;28;20029;-72
2023/08/14 05:58:07;;;;;;;16.30;9.85;;;563.90;2432.00;;;;;;5021821;28;20038;-70
2023/08/14 06:00:34;;;;;;;14.48;8.55;;;564.10;2432.00;;;;;;5025306;28;20029;-71
2023/08/14 06:03:00;;;;;;;18.85;9.65;;;588.80;2432.00;;;;;;5026995;28;20025;-72
2023/08/14 06:05:26;;;;;;;12.30;8.48;;;588.90;2432.00;;;;;;5038329;28;20076;-74
2023/08/14 06:07:53;;;;;;;11.85;9.38;;;589.10;2432.00;;;;;;5025916;28;20037;-70
2023/08/14 06:10:20;;;;;;;11.40;8.32;;;589.00;2432.00;;;;;;5025097;28;20480;-71
2023/08/14 06:12:48;;;;;;;16.30;8.27;;;589.20;2432.00;;;;;;5023812;28;20495;-70
2023/08/14 06:15:14;;;;;;;14.18;8.27;;;589.50;2432.00;;;;;;5026573;28;20033;-74
2023/08/14 06:17:41;;;;;;;15.27;7.88;;;589.70;2432.00;;;;;;5029264;28;20053;-71
2023/08/14 06:20:07;;;;;;;11.00;7.78;;;614.40;2432.00;;;;;;5023400;28;20495;-70
2023/08/14 06:22:39;;;;;;;10.00;7.85;;;614.60;2432.00;;;;;;5024273;28;20395;-70
2023/08/14 06:25:05;;;;;;;55.97;10.95;;;614.80;2432.00;;;;;;5020196;28;20037;-71
2023/08/14 06:27:31;;;;;;;11.90;7.50;;;614.90;2432.00;;;;;;5019383;28;20022;-71
2023/08/14 06:29:56;;;;;;;11.13;7.63;;;615.10;2432.00;;;;;;5029013;28;20036;-71
2023/08/14 06:32:22;;;;;;;9.70;7.60;;;615.20;2432.00;;;;;;5027209;28;20018;-69
2023/08/14 06:34:50;;;;;;;11.65;7.93;;;640.00;2432.00;;;;;;5025929;28;20436;-71
2023/08/14 06:37:16;;;;;;;11.80;6.80;;;640.10;2432.00;;;;;;5025346;28;20025;-69
2023/08/14 06:39:42;;;;;;;10.05;6.32;;;640.20;2432.00;;;;;;5020154;28;20030;-70
2023/08/14 06:42:08;;;;;;;11.02;6.90;;;640.50;2432.00;;;;;;5017496;28;20560;-70
2023/08/14 06:44:34;;;;;;;13.15;6.25;;;640.70;2432.00;;;;;;5025043;28;20144;-70
2023/08/14 06:47:01;;;;;;;8.98;5.57;;;640.90;2432.00;;;;;;5024800;28;20037;-71
2023/08/14 06:49:27;;;;;;;8.68;5.43;;;640.90;2432.00;;;;;;5020995;28;20038;-71
2023/08/14 06:51:52;;;;;;;7.18;5.80;;;665.60;2432.00;;;;;;5026369;28;20090;-73
2023/08/14 06:54:18;;;;;;;8.68;6.00;;;665.90;2432.00;;;;;;5022316;28;20108;-70
2023/08/14 06:56:44;;;;;;;8.50;6.03;;;666.30;2432.00;;;;;;5023588;28;20033;-73
2023/08/14 06:59:10;;;;;;;10.98;6.43;;;666.40;2432.00;;;;;;5017317;28;20472;-70
2023/08/14 07:01:35;;;;;;;7.72;5.85;;;691.20;2432.00;;;;;;5025458;28;20061;-70
2023/08/14 07:04:01;;;;;;;7.80;6.22;;;691.30;2432.00;;;;;;5022379;28;20029;-70
2023/08/14 07:06:27;;;;;;;13.00;6.50;;;691.40;2432.00;;;;;;5025033;28;20038;-71
2023/08/14 07:08:53;;;;;;;10.40;6.10;;;691.60;2406.40;;;;;;5026002;28;20022;-70
2023/08/14 07:11:19;;;;;;;10.02;5.65;;;691.60;2380.80;;;;;;5023503;28;20038;-70
2023/08/14 07:13:44;;;;;;;7.03;5.70;;;691.80;2380.80;;;;;;5024198;28;20064;-71
2023/08/14 07:16:10;;;;;;;7.20;5.90;;;692.00;2304.00;;;;;;5020848;28;20391;-71
2023/08/14 07:18:36;;;;;;;8.05;5.82;;;692.10;2329.60;;;;;;5019218;28;20065;-71
2023/08/14 07:21:02;;;;;;;8.75;5.55;;;716.80;2278.40;;;;;;5035146;28;20033;-75
2023/08/14 07:23:28;;;;;;;12.27;5.75;;;716.80;2201.60;;;;;;5032362;28;20040;-71
2023/08/14 07:25:59;;;;;;;6.70;5.28;;;716.90;2227.20;;;;;;5019594;28;20518;-71
2023/08/14 07:28:25;;;;;;;8.05;5.43;;;717.10;2176.00;;;;;;5024470;28;20031;-71
2023/08/14 07:30:51;;;;;;;6.32;5.32;;;717.10;2201.60;;;;;;5024482;28;20021;-70
2023/08/14 07:33:17;;;;;;;10.32;5.75;;;717.20;2176.00;;;;;;5018745;28;20068;-70
2023/08/14 07:35:42;;;;;;;10.27;5.25;;;717.40;2150.40;;;;;;5025731;28;20479;-71
2023/08/14 07:38:08;;;;;;;10.20;5.65;;;717.60;2150.40;;;;;;5023619;28;20108;-71
2023/08/14 07:40:34;;;;;;;9.98;5.65;;;717.70;2099.20;;;;;;5026879;28;20030;-69
2023/08/14 07:43:00;;;;;;;10.45;5.60;;;742.40;2124.80;;;;;;5024628;28;20431;-70
2023/08/14 07:45:26;;;;;;;8.52;5.63;;;742.50;2048.00;;;;;;5022188;28;20091;-71
2023/08/14 07:47:51;;;;;;;8.93;6.20;;;742.60;2073.60;;;;;;5016837;28;20523;-73
2023/08/14 07:50:17;;;;;;;8.43;6.20;;;742.90;2073.60;;;;;;5018547;28;20045;-74
2023/08/14 07:52:43;;;;;;;10.38;6.47;;;743.00;1996.80;;;;;;5022687;28;20022;-70
2023/08/14 07:55:08;;;;;;;7.05;5.45;;;742.90;1971.20;;;;;;5027126;28;20025;-70
2023/08/14 07:57:34;;;;;;;6.57;5.45;;;743.10;1971.20;;;;;;5018562;28;20027;-70
2023/08/14 08:00:00;;;;;;;9.45;6.25;;;743.00;1894.40;;;;;;5026075;28;20041;-71
2023/08/14 08:02:26;;;;;;;7.40;5.55;;;743.30;1920.00;;;;;;5023973;28;20037;-71
2023/08/14 08:04:52;;;;;;;6.25;5.47;;;768.00;1945.60;;;;;;5020981;28;20037;-71
2023/08/14 08:07:17;;;;;;;7.90;5.85;;;743.30;1868.80;;;;;;5017086;28;20026;-72
2023/08/14 08:09:43;;;;;;;10.90;5.10;;;768.20;1894.40;;;;;;5026765;28;20057;-70
2023/08/14 08:12:09;;;;;;;6.47;5.18;;;768.70;1792.00;;;;;;5025071;28;20479;-71
2023/08/14 08:14:35;;;;;;;8.98;6.78;;;768.80;1792.00;;;;;;5023367;28;20076;-73
2023/08/14 08:17:02;;;;;;;9.35;6.35;;;768.80;1817.60;;;;;;5019218;28;20034;-71
2023/08/14 08:19:27;;;;;;;10.82;5.50;;;793.70;1817.60;;;;;;5015815;28;20053;-74
2023/08/14 08:21:53;;;;;;;10.57;6.65;;;793.70;1792.00;;;;;;5024396;28;20060;-70
2023/08/14 08:24:19;;;;;;;13.82;5.40;;;794.20;1740.80;;;;;;5025362;28;20033;-70
2023/08/14 08:26:45;;;;;;;8.32;5.32;;;794.20;1715.20;;;;;;5020173;28;20037;-71
2023/08/14 08:29:11;;;;;;;7.97;5.65;;;794.00;1715.20;;;;;;5021796;28;20033;-70
2023/08/14 08:31:37;;;;;;;8.50;6.07;;;794.50;1612.80;;;;;;5027944;28;20035;-72
2023/08/14 08:34:02;;;;;;;7.78;5.82;;;819.20;1612.80;;;;;;5018834;28;20050;-73
2023/08/14 08:36:28;;;;;;;8.13;5.00;;;794.40;1638.40;;;;;;5025036;28;20029;-72
2023/08/14 08:38:55;;;;;;;6.85;5.50;;;819.40;1612.80;;;;;;5024419;28;20042;-76
2023/08/14 08:41:32;;;;;;;8.25;5.20;;;819.60;1612.80;;;;;;5020934;28;20029;-74
2023/08/14 08:44:15;;;;;;;9.48;5.53;;;819.70;1612.80;;;;;;5031366;28;20108;-71
2023/08/14 08:46:50;;;;;;;7.90;5.72;;;819.60;1561.60;;;;;;5017580;28;20029;-71
2023/08/14 08:49:17;;;;;;;7.82;5.72;;;819.60;1561.60;;;;;;5017759;28;20396;-72
2023/08/14 08:51:44;;;;;;;6.85;5.18;;;819.80;1561.60;;;;;;5026473;28;20479;-72
2023/08/14 08:54:12;;;;;;;11.77;5.57;;;820.00;1561.60;;;;;;5029644;28;20029;-71
2023/08/14 08:56:37;;;;;;;8.27;5.47;;;819.90;1536.00;;;;;;5018784;28;20079;-72
2023/08/14 08:59:04;;;;;;;6.57;4.85;;;819.90;1561.60;;;;;;5017927;28;20427;-72
2023/08/14 09:01:29;;;;;;;10.10;5.05;;;820.10;1536.00;;;;;;5024057;28;20061;-76
2023/08/14 09:03:55;;;;;;;5.22;4.40;;;844.90;1536.00;;;;;;5015377;28;20057;-70
2023/08/14 09:06:21;;;;;;;11.80;4.55;;;819.80;1484.80;;;;;;5019514;28;20086;-71
2023/08/14 09:08:47;;;;;;;4.90;4.28;;;820.00;1459.20;;;;;;5022571;28;20483;-70
2023/08/14 09:11:13;;;;;;;9.13;4.53;;;819.80;1484.80;;;;;;5020329;28;20033;-71
2023/08/14 09:13:39;;;;;;;7.15;4.57;;;819.90;1484.80;;;;;;5031481;28;20430;-71
2023/08/14 09:16:04;;;;;;;7.32;5.25;;;819.70;1510.40;;;;;;5023404;28;20029;-70
2023/08/14 09:18:31;;;;;;;5.43;4.68;;;820.10;1510.40;;;;;;5020503;28;20033;-71
2023/08/14 09:20:58;;;;;;;8.75;4.85;;;820.00;1484.80;;;;;;5026070;28;20085;-72
2023/08/14 09:23:25;;;;;;;8.50;5.05;;;820.10;1484.80;;;;;;5023026;28;20048;-71
2023/08/14 09:25:50;;;;;;;16.60;4.93;;;820.10;1459.20;;;;;;5020672;28;20037;-71
2023/08/14 09:28:17;;;;;;;5.60;4.57;;;820.10;1459.20;;;;;;5027816;28;20087;-72
2023/08/14 09:30:43;;;;;;;5.65;4.80;;;819.90;1433.60;;;;;;5017745;28;20424;-70
2023/08/14 09:33:11;;;;;;;5.88;4.78;;;820.00;1459.20;;;;;;5031154;28;20049;-70
2023/08/14 09:35:38;;;;;;;8.68;4.50;;;845.00;1459.20;;;;;;5023248;28;20129;-70
2023/08/14 09:38:04;;;;;;;5.57;4.63;;;845.30;1433.60;;;;;;5026547;28;20021;-71
2023/08/14 09:40:31;;;;;;;8.32;4.38;;;845.30;1408.00;;;;;;5019767;28;20026;-70
2023/08/14 09:42:57;;;;;;;5.53;4.25;;;845.40;1382.40;;;;;;5020783;28;20109;-71
2023/08/14 09:45:27;;;;;;;12.35;4.65;;;845.40;1356.80;;;;;;5027485;28;20487;-71
2023/08/14 09:48:00;;;;;;;5.93;4.82;;;845.30;1356.80;;;;;;5018763;28;20484;-70
2023/08/14 09:50:29;;;;;;;8.20;4.68;;;845.30;1356.80;;;;;;5019144;28;20033;-71
2023/08/14 09:53:00;;;;;;;7.00;4.30;;;845.60;1356.80;;;;;;5016203;28;20431;-71
2023/08/14 09:55:27;;;;;;;11.55;4.38;;;870.50;1356.80;;;;;;5031799;28;20033;-71
2023/08/14 09:57:53;;;;;;;4.53;4.03;;;870.50;1356.80;;;;;;5026116;28;20491;-71
2023/08/14 10:00:19;;;;;;;10.30;4.45;;;870.80;1331.20;;;;;;5019887;28;20029;-72
2023/08/14 10:02:47;;;;;;;5.57;3.92;;;871.00;1305.60;;;;;;5024520;28;20470;-71
2023/08/14 10:05:15;;;;;;;9.27;4.35;;;871.10;1305.60;;;;;;5023239;28;20125;-70
2023/08/14 10:07:42;;;;;;;5.97;4.88;;;871.00;1305.60;;;;;;5024679;28;20081;-70
2023/08/14 10:10:08;;;;;;;7.30;3.95;;;896.00;1305.60;;;;;;5019602;28;20072;-77
2023/08/14 10:13:07;;;;;;;7.75;4.13;;;896.10;1305.60;;;;;;5023698;28;20076;-71
2023/08/14 10:15:38;;;;;;;7.68;4.20;;;896.00;1280.00;;;;;;5022785;28;20502;-71
2023/08/14 10:18:15;;;;;;;8.88;4.30;;;871.30;1254.40;;;;;;5021156;28;20141;-73
2023/08/14 10:20:42;;;;;;;8.85;4.38;;;896.00;1228.80;;;;;;5021619;28;20033;-70
2023/08/14 10:23:09;;;;;;;6.55;4.15;;;896.10;1203.20;;;;;;5025014;28;20104;-71
2023/08/14 10:25:37;;;;;;;8.35;4.97;;;871.10;1228.80;;;;;;5026991;28;20056;-73
2023/08/14 10:28:03;;;;;;;6.80;4.75;;;896.00;1254.40;;;;;;5019204;28;20104;-75
2023/08/14 10:30:30;;;;;;;8.85;4.40;;;896.10;1203.20;;;;;;5022295;28;20030;-72
2023/08/14 10:32:56;;;;;;;9.77;4.00;;;896.30;1254.40;;;;;;5024489;28;20091;-71
2023/08/14 10:35:23;;;;;;;4.10;3.30;;;871.30;1228.80;;;;;;5020926;28;20443;-70
2023/08/14 10:37:49;;;;;;;7.47;3.97;;;871.30;1203.20;;;;;;5028561;28;20026;-72
2023/08/14 10:40:24;;;;;;;5.68;3.80;;;871.10;1177.60;;;;;;5024466;28;20037;-71
2023/08/14 10:42:58;;;;;;;9.48;4.18;;;896.10;1203.20;;;;;;5024475;28;20045;-71
2023/08/14 10:45:27;;;;;;;9.90;4.77;;;871.30;1203.20;;;;;;5025213;28;20100;-71
2023/08/14 10:47:59;;;;;;;6.57;3.83;;;896.30;1152.00;;;;;;5024916;28;20032;-71
2023/08/14 10:50:28;;;;;;;7.72;4.15;;;896.10;1152.00;;;;;;5021052;28;20053;-70
2023/08/14 10:52:56;;;;;;;11.05;4.45;;;896.00;1152.00;;;;;;5028467;28;20037;-71
2023/08/14 10:55:35;;;;;;;9.43;4.00;;;896.10;1152.00;;;;;;5022717;28;20036;-72
2023/08/14 10:58:00;;;;;;;5.40;3.72;;;896.40;1177.60;;;;;;5023555;28;20026;-72
2023/08/14 11:00:27;;;;;;;5.22;4.15;;;896.20;1177.60;;;;;;5022513;28;20396;-72
2023/08/14 11:03:03;;;;;;;8.60;3.92;;;896.20;1203.20;;;;;;5023474;28;20116;-71
2023/08/14 11:05:36;;;;;;;4.82;3.90;;;896.20;1177.60;;;;;;5017686;28;20049;-71
2023/08/14 11:08:02;;;;;;;5.15;3.58;;;896.20;1152.00;;;;;;5018152;28;20037;-72
2023/08/14 11:10:28;;;;;;;7.40;4.13;;;896.90;1177.60;;;;;;5027363;28;20472;-72
2023/08/14 11:12:56;;;;;;;5.72;3.80;;;896.90;1177.60;;;;;;5025498;28;20104;-72
2023/08/14 11:15:22;;;;;;;5.90;4.22;;;896.30;1126.40;;;;;;5024401;28;20106;-73
2023/08/14 11:17:48;;;;;;;8.43;4.43;;;896.30;1126.40;;;;;;5027117;28;20058;-73
2023/08/14 11:20:14;;;;;;;10.68;4.50;;;896.30;1126.40;;;;;;5023361;28;20424;-71
2023/08/14 11:22:46;;;;;;;9.23;4.32;;;896.70;1100.80;;;;;;5025530;28;20041;-75
2023/08/14 11:25:14;;;;;;;4.85;3.90;;;896.30;1126.40;;;;;;5021904;28;20029;-71
2023/08/14 11:27:40;;;;;;;6.82;4.60;;;896.20;1152.00;;;;;;5021334;28;20041;-72
2023/08/14 11:30:06;;;;;;;6.70;4.20;;;896.30;1126.40;;;;;;5018147;28;20021;-71
2023/08/14 11:32:32;;;;;;;7.78;4.13;;;896.50;1152.00;;;;;;5017648;28;20392;-71
2023/08/14 11:34:58;;;;;;;3.95;3.28;;;896.10;1152.00;;;;;;5024338;28;20092;-71
2023/08/14 11:37:23;;;;;;;6.57;4.00;;;871.10;1152.00;;;;;;5016722;28;20025;-71
2023/08/14 11:39:49;;;;;;;8.40;4.05;;;896.00;1126.40;;;;;;5024219;28;20026;-72
2023/08/14 11:42:15;;;;;;;8.32;3.90;;;896.50;1126.40;;;;;;5017056;28;20376;-71
2023/08/14 11:44:41;;;;;;;6.88;4.40;;;896.80;1126.40;;;;;;5017335;28;20107;-71
2023/08/14 11:47:07;;;;;;;4.55;3.60;;;896.80;1100.80;;;;;;5020939;28;20443;-71
2023/08/14 11:49:37;;;;;;;7.75;4.32;;;896.30;1126.40;;;;;;5016353;28;20026;-73
2023/08/14 11:52:04;;;;;;;13.85;8.35;;;896.30;1100.80;;;;;;5023579;28;20103;-71
2023/08/14 11:54:31;;;;;;;6.28;4.32;;;896.50;1075.20;;;;;;5019965;28;20037;-70
2023/08/14 11:57:02;;;;;;;7.55;4.20;;;896.80;1024.00;;;;;;5021355;28;20033;-72
2023/08/14 11:59:28;;;;;;;8.07;3.67;;;896.90;1100.80;;;;;;5025049;28;20060;-72
2023/08/14 12:01:56;;;;;;;5.45;4.05;;;896.50;1100.80;;;;;;5016126;28;20030;-73
2023/08/14 12:04:22;;;;;;;6.00;4.63;;;896.60;1100.80;;;;;;5023419;28;20047;-74
2023/08/14 12:06:48;;;;;;;5.25;4.05;;;896.60;1075.20;;;;;;5024652;28;20384;-72
2023/08/14 12:09:13;;;;;;;5.25;4.05;;;896.70;1126.40;;;;;;5015647;28;20025;-72
2023/08/14 12:11:39;;;;;;;10.82;4.35;;;896.90;1177.60;;;;;;5022902;28;20565;-71